Aventura, Florida
Current Conditions -  °F | °C
As of 9:53 PM on Monday 20 Oct 2014 (Local Time) from KHWO Reporting Station
Overcast Overcast  
Wind Chill: 75°   Ceiling: 6000
Heat Index: 75°   Visibility: 10mi
Dew Point: 72°   Wind: 3mph
Humidity: 90%   Direction: 130°SE
Pressure: 30"   Gusts: NA
Location:  25.9536°N, 80.1568°W
Report Text: KHWO 210153Z AUTO 13003KT 10SM OVC060 24/22 A3000 RMK AO2 SLP157 T02390222
Loading
Personal Weather Stations






























Interactive Weather Map New forecast layout! Learn more

10-Day Weather Forecast

Advertisements
Track Severe Weather on mobile